Time;durP1;ratioP1;P1;durP2;ratioP2;P2;SDS_P1;SDS_P2;PMS_P1;PMS_P2;Temp;Humidity;BMP_temperature;BMP_pressure;BME280_temperature;BME280_humidity;BME280_pressure;Samples;Min_cycle;Max_cycle;Signal;HPM_P1;HPM_P2
2021/01/17 00:00:49;;;;;;;19.80;11.77;;;2.10;99.90;;;;;;5114839;28;20072;-79
2021/01/17 00:03:15;;;;;;;22.47;11.77;;;2.20;99.90;;;;;;5096200;28;20024;-79
2021/01/17 00:05:42;;;;;;;16.93;10.07;;;2.20;99.90;;;;;;5114578;28;20137;-80
2021/01/17 00:08:09;;;;;;;19.97;11.67;;;2.20;99.90;;;;;;5114621;28;20048;-80
2021/01/17 00:10:36;;;;;;;14.87;10.33;;;2.20;99.90;;;;;;5096351;28;20129;-79
2021/01/17 00:13:02;;;;;;;23.40;10.70;;;2.20;99.90;;;;;;5096322;28;20023;-79
2021/01/17 00:15:28;;;;;;;18.87;11.27;;;2.30;99.90;;;;;;5096319;28;20027;-79
2021/01/17 00:17:54;;;;;;;17.40;10.73;;;2.20;99.90;;;;;;5096330;28;20378;-80
2021/01/17 00:20:24;;;;;;;23.90;11.30;;;2.20;99.90;;;;;;5096105;28;20024;-80
2021/01/17 00:22:50;;;;;;;17.80;11.33;;;2.20;99.90;;;;;;5096048;28;20480;-79
2021/01/17 00:25:18;;;;;;;18.13;11.13;;;2.20;99.90;;;;;;5096284;28;20054;-79
2021/01/17 00:27:51;;;;;;;19.03;10.30;;;2.20;99.90;;;;;;5114485;28;20019;-80
2021/01/17 00:30:21;;;;;;;16.13;11.37;;;2.20;99.90;;;;;;5095954;28;20019;-79
2021/01/17 00:32:55;;;;;;;19.70;11.43;;;2.20;99.90;;;;;;5095868;28;20015;-79
2021/01/17 00:35:22;;;;;;;20.23;11.80;;;2.30;99.90;;;;;;5113353;28;20019;-79
2021/01/17 00:38:06;;;;;;;23.13;11.73;;;2.30;99.90;;;;;;5096138;28;20023;-79
2021/01/17 00:40:31;;;;;;;23.73;11.00;;;2.20;99.90;;;;;;5113997;28;20511;-79
2021/01/17 00:42:57;;;;;;;21.80;11.23;;;2.20;99.90;;;;;;5095873;28;20107;-79
2021/01/17 00:45:28;;;;;;;16.90;10.47;;;2.20;99.90;;;;;;5095800;28;20020;-79
2021/01/17 00:47:54;;;;;;;18.17;11.50;;;2.10;99.90;;;;;;5095677;28;20031;-79
2021/01/17 00:50:21;;;;;;;21.43;11.13;;;2.20;99.90;;;;;;5113870;28;20020;-79
2021/01/17 00:52:54;;;;;;;17.07;11.70;;;2.10;99.90;;;;;;5095531;28;20020;-79
2021/01/17 00:55:20;;;;;;;21.70;11.13;;;2.10;99.90;;;;;;5113854;28;20023;-80
2021/01/17 00:57:46;;;;;;;24.27;13.10;;;2.10;99.90;;;;;;5113817;28;20016;-80
2021/01/17 01:00:14;;;;;;;21.83;13.60;;;2.10;99.90;;;;;;5095802;28;20063;-79
2021/01/17 01:02:40;;;;;;;25.40;15.13;;;2.10;99.90;;;;;;5113687;28;20480;-79
2021/01/17 01:05:07;;;;;;;24.07;13.30;;;2.10;99.90;;;;;;5096480;28;20110;-79
2021/01/17 01:07:33;;;;;;;21.97;13.87;;;2.10;99.90;;;;;;5113580;28;20089;-79
2021/01/17 01:09:59;;;;;;;22.80;12.93;;;2.10;99.90;;;;;;5095473;28;20122;-79
2021/01/17 01:12:24;;;;;;;23.87;13.83;;;2.10;99.90;;;;;;5095295;28;20115;-79
2021/01/17 01:14:50;;;;;;;25.17;13.87;;;2.00;99.90;;;;;;5095573;28;20839;-79
2021/01/17 01:17:16;;;;;;;26.63;14.30;;;2.00;99.90;;;;;;5113657;28;20082;-79
2021/01/17 01:19:41;;;;;;;23.43;14.60;;;2.00;99.90;;;;;;5095383;28;20523;-79
2021/01/17 01:22:07;;;;;;;29.03;14.30;;;2.00;99.90;;;;;;5113642;28;20385;-79
2021/01/17 01:24:33;;;;;;;26.33;13.73;;;1.90;99.90;;;;;;5095297;28;20051;-79
2021/01/17 01:26:59;;;;;;;23.83;13.50;;;1.80;99.90;;;;;;5095067;28;20026;-79
2021/01/17 01:29:25;;;;;;;22.30;13.23;;;1.90;99.90;;;;;;5095332;28;20024;-79
2021/01/17 01:31:51;;;;;;;23.70;12.83;;;1.90;99.90;;;;;;5113463;28;20106;-79
2021/01/17 01:34:16;;;;;;;22.00;12.63;;;1.90;99.90;;;;;;5113501;28;20019;-79
2021/01/17 01:36:43;;;;;;;24.00;13.80;;;1.90;99.90;;;;;;5095119;28;20565;-78
2021/01/17 01:39:10;;;;;;;21.30;13.27;;;1.90;99.90;;;;;;5113396;28;20111;-78
2021/01/17 01:41:38;;;;;;;22.33;12.80;;;1.90;99.90;;;;;;5113388;28;20027;-78
2021/01/17 01:44:05;;;;;;;24.17;12.57;;;1.80;99.90;;;;;;5113367;28;20031;-78
2021/01/17 01:46:31;;;;;;;22.17;13.03;;;1.80;99.90;;;;;;5097841;28;20038;-78
2021/01/17 01:49:00;;;;;;;17.80;11.70;;;1.80;99.90;;;;;;5105588;28;20024;-77
2021/01/17 01:51:27;;;;;;;20.37;11.50;;;1.80;99.90;;;;;;5078560;28;20024;-77
2021/01/17 01:53:55;;;;;;;19.03;11.70;;;1.90;99.90;;;;;;5078733;28;20031;-77
2021/01/17 01:56:21;;;;;;;22.30;12.60;;;1.90;99.90;;;;;;5078933;28;20152;-77
2021/01/17 01:58:47;;;;;;;22.53;12.43;;;1.80;99.90;;;;;;5096957;28;20028;-77
2021/01/17 02:01:13;;;;;;;17.63;11.77;;;1.80;99.90;;;;;;5078499;28;20114;-77
2021/01/17 02:03:44;;;;;;;19.47;12.37;;;1.80;99.90;;;;;;5078797;28;20115;-77
2021/01/17 02:06:13;;;;;;;19.77;12.03;;;1.70;99.90;;;;;;5096887;28;20039;-77
2021/01/17 02:09:04;;;;;;;18.07;11.77;;;1.70;99.90;;;;;;5078682;28;20036;-78
2021/01/17 02:11:48;;;;;;;21.50;12.30;;;1.70;99.90;;;;;;5059143;28;20066;-77
2021/01/17 02:14:32;;;;;;;22.30;11.57;;;1.70;99.90;;;;;;5096680;28;20052;-77
2021/01/17 02:17:01;;;;;;;22.90;12.77;;;1.70;99.90;;;;;;5078551;28;20169;-78
2021/01/17 02:19:35;;;;;;;19.73;12.03;;;1.60;99.90;;;;;;5094220;28;20024;-78
2021/01/17 02:22:02;;;;;;;16.97;11.50;;;1.60;99.90;;;;;;5116992;28;20032;-77
2021/01/17 02:24:33;;;;;;;18.87;12.10;;;1.60;99.90;;;;;;5098852;28;20035;-77
2021/01/17 02:27:00;;;;;;;20.85;12.43;;;1.60;99.90;;;;;;5098593;28;20035;-78
2021/01/17 02:29:28;;;;;;;24.13;13.23;;;1.50;99.90;;;;;;5116687;28;20081;-77
2021/01/17 02:32:00;;;;;;;23.67;12.67;;;1.50;99.90;;;;;;5116362;28;20481;-77
2021/01/17 02:34:28;;;;;;;21.83;14.18;;;1.60;99.90;;;;;;5098261;28;20023;-77
2021/01/17 02:36:56;;;;;;;20.77;12.23;;;1.60;99.90;;;;;;5116715;28;20027;-77
2021/01/17 02:39:38;;;;;;;22.50;13.03;;;1.60;99.90;;;;;;5116401;28;20066;-77
2021/01/17 02:42:04;;;;;;;19.58;12.10;;;1.60;99.90;;;;;;5096701;28;20031;-77
2021/01/17 02:44:32;;;;;;;19.47;12.10;;;1.60;99.90;;;;;;5114139;28;20028;-77
2021/01/17 02:46:58;;;;;;;18.30;12.20;;;1.60;99.90;;;;;;5095649;28;20405;-77
2021/01/17 02:49:24;;;;;;;21.83;13.03;;;1.70;99.90;;;;;;5114716;28;20054;-77
2021/01/17 02:51:51;;;;;;;23.83;13.33;;;1.60;99.90;;;;;;5113339;28;20028;-77
2021/01/17 02:54:32;;;;;;;23.90;14.07;;;1.50;99.90;;;;;;5113802;28;20028;-78
2021/01/17 02:57:04;;;;;;;28.65;13.00;;;1.40;99.90;;;;;;5111435;28;20024;-78
2021/01/17 03:00:18;;;;;;;22.10;13.23;;;1.40;99.90;;;;;;5094874;28;20023;-78
2021/01/17 03:02:45;;;;;;;22.13;13.20;;;1.50;99.90;;;;;;5093002;28;20036;-78
2021/01/17 03:05:17;;;;;;;24.43;14.67;;;1.50;99.90;;;;;;5094930;28;20024;-77
2021/01/17 03:07:54;;;;;;;21.27;13.88;;;1.50;99.90;;;;;;5083830;28;20117;-77
2021/01/17 03:10:21;;;;;;;27.73;14.97;;;1.60;99.90;;;;;;5081182;28;20102;-78
2021/01/17 03:12:48;;;;;;;23.13;14.97;;;1.70;99.90;;;;;;5081858;28;20047;-77
2021/01/17 03:15:15;;;;;;;22.87;14.07;;;1.70;99.90;;;;;;5083093;28;20032;-77
2021/01/17 03:17:41;;;;;;;23.33;14.13;;;1.60;99.90;;;;;;5080327;28;20489;-77
2021/01/17 03:20:07;;;;;;;22.60;12.97;;;1.70;99.90;;;;;;5080698;28;20115;-77
2021/01/17 03:22:33;;;;;;;20.13;12.63;;;1.70;99.90;;;;;;5082076;28;20031;-77
2021/01/17 03:24:59;;;;;;;23.40;13.07;;;1.70;99.90;;;;;;5082155;28;20398;-77
2021/01/17 03:27:25;;;;;;;18.90;12.30;;;1.70;99.90;;;;;;5081416;28;20028;-78
2021/01/17 03:29:50;;;;;;;22.23;12.53;;;1.70;99.90;;;;;;5081181;28;20020;-77
2021/01/17 03:32:16;;;;;;;22.30;12.70;;;1.70;99.90;;;;;;5073437;28;20028;-77
2021/01/17 03:34:48;;;;;;;27.43;12.80;;;1.70;99.90;;;;;;5073412;28;20029;-77
2021/01/17 03:37:19;;;;;;;21.52;12.50;;;1.70;99.90;;;;;;5071976;28;20020;-77
2021/01/17 03:39:45;;;;;;;22.83;12.83;;;1.70;99.90;;;;;;5071938;28;20563;-77
2021/01/17 03:42:14;;;;;;;24.30;14.33;;;1.70;99.90;;;;;;5072053;28;20051;-77
2021/01/17 03:44:39;;;;;;;25.83;14.67;;;1.70;99.90;;;;;;5068367;28;20017;-77
2021/01/17 03:47:07;;;;;;;23.03;14.07;;;1.70;99.90;;;;;;5061460;28;20058;-77
2021/01/17 03:49:33;;;;;;;22.63;13.10;;;1.70;99.90;;;;;;5071839;28;20025;-77
2021/01/17 03:51:58;;;;;;;24.37;13.07;;;1.70;99.90;;;;;;5071840;28;20097;-77
2021/01/17 03:54:24;;;;;;;20.47;12.67;;;1.70;99.90;;;;;;5071858;28;20017;-77
2021/01/17 03:56:50;;;;;;;23.60;13.33;;;1.70;99.90;;;;;;5071681;28;20064;-77
2021/01/17 03:59:16;;;;;;;21.63;13.73;;;1.70;99.90;;;;;;5073203;28;20016;-77
2021/01/17 04:01:43;;;;;;;23.17;13.53;;;1.70;99.90;;;;;;5071716;28;20494;-77
2021/01/17 04:04:09;;;;;;;22.17;13.07;;;1.70;99.90;;;;;;5071762;28;20110;-77
2021/01/17 04:06:36;;;;;;;21.50;13.00;;;1.70;99.90;;;;;;5076842;28;20086;-78
2021/01/17 04:09:02;;;;;;;21.73;12.83;;;1.70;99.90;;;;;;5092996;28;20028;-77
2021/01/17 04:11:28;;;;;;;19.07;12.80;;;1.70;99.90;;;;;;5091428;28;20020;-77
2021/01/17 04:13:54;;;;;;;23.90;13.00;;;1.70;99.90;;;;;;5091927;28;20017;-77
2021/01/17 04:16:20;;;;;;;21.60;12.53;;;1.70;99.90;;;;;;5092701;28;20048;-78
2021/01/17 04:18:46;;;;;;;21.23;12.93;;;1.70;99.90;;;;;;5081117;28;20024;-78
2021/01/17 04:21:11;;;;;;;27.80;12.97;;;1.80;99.90;;;;;;5071086;28;20478;-78
2021/01/17 04:23:37;;;;;;;18.33;12.43;;;1.80;99.90;;;;;;5072179;28;20494;-78
2021/01/17 04:26:02;;;;;;;17.93;11.87;;;1.80;99.90;;;;;;5071006;28;20029;-78
2021/01/17 04:28:28;;;;;;;22.13;12.33;;;1.80;99.90;;;;;;5072442;28;20479;-78
2021/01/17 04:30:54;;;;;;;24.10;12.43;;;1.80;99.90;;;;;;5070876;28;20087;-78
2021/01/17 04:33:20;;;;;;;20.40;12.33;;;1.90;99.90;;;;;;5070693;28;20029;-78
2021/01/17 04:35:49;;;;;;;21.97;12.90;;;1.90;99.90;;;;;;5072163;28;20024;-78
2021/01/17 04:38:14;;;;;;;24.67;13.50;;;1.90;99.90;;;;;;5070603;28;20071;-78
2021/01/17 04:40:40;;;;;;;19.63;12.47;;;1.90;99.90;;;;;;5070548;28;20463;-78
2021/01/17 04:43:15;;;;;;;32.93;13.20;;;1.90;99.90;;;;;;5072284;28;20031;-78
2021/01/17 04:45:42;;;;;;;17.87;12.43;;;1.90;99.90;;;;;;5072609;28;20028;-78
2021/01/17 04:48:08;;;;;;;20.43;12.43;;;1.90;99.90;;;;;;5075541;28;20174;-78
2021/01/17 04:50:34;;;;;;;25.27;13.60;;;1.90;99.90;;;;;;5080715;28;20497;-78
2021/01/17 04:53:04;;;;;;;18.20;12.43;;;1.90;99.90;;;;;;5080338;28;20492;-78
2021/01/17 04:55:34;;;;;;;19.70;12.33;;;2.00;99.90;;;;;;5080456;28;20063;-78
2021/01/17 04:58:09;;;;;;;20.47;12.13;;;2.00;99.90;;;;;;5080672;28;20035;-78
2021/01/17 05:00:41;;;;;;;17.97;11.37;;;2.00;99.90;;;;;;5083200;28;20040;-78
2021/01/17 05:03:38;;;;;;;21.83;11.88;;;2.10;99.90;;;;;;5083594;28;20012;-78
2021/01/17 05:06:25;;;;;;;21.47;12.07;;;2.10;99.90;;;;;;5077563;28;20424;-77
2021/01/17 05:09:05;;;;;;;20.03;12.17;;;2.10;99.90;;;;;;5126397;27;20419;-78
2021/01/17 05:11:36;;;;;;;17.80;11.83;;;2.10;99.90;;;;;;5091852;28;20485;-78
2021/01/17 05:14:12;;;;;;;21.77;12.53;;;2.10;99.90;;;;;;5111418;28;20114;-78
2021/01/17 05:16:44;;;;;;;20.40;12.50;;;2.10;99.90;;;;;;5093348;28;20034;-78
2021/01/17 05:19:18;;;;;;;;;;;2.10;99.90;;;;;;5092811;28;20102;-78
2021/01/17 05:21:46;;;;;;;19.27;11.90;;;2.00;99.90;;;;;;5109684;28;20380;-77
2021/01/17 05:24:13;;;;;;;21.60;12.27;;;2.10;99.90;;;;;;5110558;28;20110;-77
2021/01/17 05:26:49;;;;;;;23.80;11.97;;;2.10;99.90;;;;;;5092095;28;20393;-78
2021/01/17 05:29:18;;;;;;;21.73;12.17;;;2.10;99.90;;;;;;5092244;28;20028;-78
2021/01/17 05:31:53;;;;;;;17.73;11.63;;;2.10;99.90;;;;;;5092574;28;20431;-77
2021/01/17 05:34:19;;;;;;;18.00;11.17;;;2.10;99.90;;;;;;5112189;28;20497;-78
2021/01/17 05:36:45;;;;;;;19.07;12.40;;;2.20;99.90;;;;;;5093990;28;20085;-77
2021/01/17 05:39:11;;;;;;;17.40;11.43;;;2.20;99.90;;;;;;5112282;28;20027;-77
2021/01/17 05:41:37;;;;;;;23.13;12.10;;;2.20;99.90;;;;;;5112100;28;20104;-78
2021/01/17 05:44:02;;;;;;;21.37;12.10;;;2.20;99.90;;;;;;5093773;28;20118;-78
2021/01/17 05:46:28;;;;;;;19.13;11.87;;;2.20;99.90;;;;;;5093857;28;20050;-78
2021/01/17 05:49:13;;;;;;;20.70;12.37;;;2.20;99.90;;;;;;5093833;28;20081;-78
2021/01/17 05:51:38;;;;;;;25.20;13.60;;;2.30;99.90;;;;;;5093533;28;20027;-78
2021/01/17 05:54:08;;;;;;;19.10;12.13;;;2.30;99.90;;;;;;5112096;28;20393;-78
2021/01/17 05:56:35;;;;;;;21.13;12.47;;;2.30;99.90;;;;;;5112003;28;20560;-77
2021/01/17 05:59:04;;;;;;;19.93;11.97;;;2.30;99.90;;;;;;5112290;28;20027;-78
2021/01/17 06:01:34;;;;;;;19.27;13.03;;;2.30;99.90;;;;;;5111936;28;20478;-77
2021/01/17 06:04:09;;;;;;;20.17;13.33;;;2.20;99.90;;;;;;5112238;28;20500;-77
2021/01/17 06:06:35;;;;;;;17.40;12.40;;;2.30;99.90;;;;;;5093575;28;20051;-78
2021/01/17 06:09:02;;;;;;;22.43;12.27;;;2.40;99.90;;;;;;5093669;28;20389;-77
2021/01/17 06:11:29;;;;;;;21.30;13.10;;;2.40;99.90;;;;;;5111755;28;20023;-77
2021/01/17 06:14:00;;;;;;;20.53;12.80;;;2.40;99.90;;;;;;5111672;28;20024;-77
2021/01/17 06:16:32;;;;;;;20.80;13.10;;;2.40;99.90;;;;;;5111641;28;20020;-77
2021/01/17 06:18:58;;;;;;;;;;;2.40;99.90;;;;;;5112112;28;20016;-78
2021/01/17 06:21:25;;;;;;;19.97;13.87;;;2.40;99.90;;;;;;5093452;28;19952;-78
2021/01/17 06:24:10;;;;;;;25.07;15.67;;;2.40;99.90;;;;;;5093566;28;20389;-77
2021/01/17 06:26:39;;;;;;;29.07;13.70;;;2.40;99.90;;;;;;5093294;28;20059;-77
2021/01/17 06:29:10;;;;;;;26.63;15.57;;;2.30;99.90;;;;;;5111551;28;20024;-77
2021/01/17 06:31:37;;;;;;;24.97;15.87;;;2.20;99.90;;;;;;5112711;28;20109;-77
2021/01/17 06:34:04;;;;;;;31.10;16.90;;;2.20;99.90;;;;;;5115468;28;20027;-78
2021/01/17 06:36:30;;;;;;;30.63;16.70;;;2.30;99.90;;;;;;5097148;28;20027;-77
2021/01/17 06:38:56;;;;;;;23.00;15.27;;;2.30;99.90;;;;;;5096950;28;20043;-78
2021/01/17 06:41:33;;;;;;;22.80;13.80;;;2.30;99.90;;;;;;5096815;28;20437;-78
2021/01/17 06:44:12;;;;;;;24.70;13.63;;;2.30;99.90;;;;;;5097077;28;20023;-77
2021/01/17 06:46:43;;;;;;;20.30;12.43;;;2.30;99.90;;;;;;5115366;28;20485;-78
2021/01/17 06:49:26;;;;;;;23.57;13.30;;;2.40;99.90;;;;;;5115162;28;20485;-77
2021/01/17 06:51:53;;;;;;;22.50;13.37;;;2.40;99.90;;;;;;5114947;28;20115;-78
2021/01/17 06:54:20;;;;;;;24.07;14.07;;;2.40;99.90;;;;;;5115016;28;20015;-78
2021/01/17 06:56:49;;;;;;;24.07;13.87;;;2.40;99.90;;;;;;5114828;28;20022;-77
2021/01/17 06:59:28;;;;;;;24.40;15.00;;;2.40;99.90;;;;;;5111053;27;20092;-78
2021/01/17 07:02:13;;;;;;;25.03;14.77;;;2.40;99.90;;;;;;5116807;27;20031;-78
2021/01/17 07:05:00;;;;;;;28.10;14.27;;;2.40;99.90;;;;;;5135467;27;20019;-78
2021/01/17 07:07:57;;;;;;;23.57;13.53;;;2.30;99.90;;;;;;5134156;27;20501;-78
2021/01/17 07:10:24;;;;;;;26.43;14.60;;;2.30;99.90;;;;;;5116574;27;20027;-78
2021/01/17 07:13:06;;;;;;;21.70;13.07;;;2.40;99.90;;;;;;5134973;27;20039;-78
2021/01/17 07:15:36;;;;;;;26.45;14.80;;;2.40;99.90;;;;;;5116803;27;20024;-77
2021/01/17 07:18:05;;;;;;;20.93;13.83;;;2.40;99.90;;;;;;5131060;27;20023;-78
2021/01/17 07:20:37;;;;;;;22.50;14.43;;;2.40;99.90;;;;;;5096416;28;20031;-78
2021/01/17 07:23:04;;;;;;;18.48;13.02;;;2.40;99.90;;;;;;5114376;28;20081;-77
2021/01/17 07:25:31;;;;;;;21.53;14.20;;;2.40;99.90;;;;;;5096043;28;20028;-78
2021/01/17 07:28:07;;;;;;;22.57;13.20;;;2.40;99.90;;;;;;5096019;28;20034;-77
2021/01/17 07:30:57;;;;;;;23.27;12.90;;;2.40;99.90;;;;;;5095799;28;20034;-78
2021/01/17 07:33:25;;;;;;;23.03;14.47;;;2.40;99.90;;;;;;5114404;28;20019;-78
2021/01/17 07:35:54;;;;;;;24.47;14.60;;;2.50;99.90;;;;;;5095835;28;20413;-78
2021/01/17 07:38:23;;;;;;;28.83;15.57;;;2.40;99.90;;;;;;5114310;28;20028;-77
2021/01/17 07:41:09;;;;;;;28.53;16.07;;;2.50;99.90;;;;;;5114242;28;20026;-78
2021/01/17 07:43:44;;;;;;;29.67;16.60;;;2.40;99.90;;;;;;5113810;28;20030;-77
2021/01/17 07:46:17;;;;;;;25.60;15.07;;;2.40;99.90;;;;;;5114223;28;20022;-77
2021/01/17 07:48:45;;;;;;;29.93;15.13;;;2.40;99.90;;;;;;5114140;28;20106;-77
2021/01/17 07:51:15;;;;;;;32.63;15.07;;;2.50;99.90;;;;;;5095799;28;20032;-78
2021/01/17 07:54:08;;;;;;;25.73;15.10;;;2.50;99.90;;;;;;5095785;28;20053;-77
2021/01/17 07:56:37;;;;;;;28.03;15.63;;;2.50;99.90;;;;;;5114041;28;20477;-77
2021/01/17 07:59:04;;;;;;;23.23;14.47;;;2.50;99.90;;;;;;5095521;28;20119;-77
2021/01/17 08:01:36;;;;;;;25.33;15.40;;;2.60;99.90;;;;;;5113591;28;20547;-77
2021/01/17 08:04:01;;;;;;;24.67;14.95;;;2.60;99.90;;;;;;5095367;28;20023;-77
2021/01/17 08:06:36;;;;;;;31.03;19.93;;;2.60;99.90;;;;;;5113310;28;20040;-77
2021/01/17 08:09:06;;;;;;;42.47;23.23;;;2.60;99.90;;;;;;5096696;28;20080;-77
2021/01/17 08:11:55;;;;;;;37.60;19.87;;;2.60;99.90;;;;;;5114723;28;20883;-77
2021/01/17 08:14:48;;;;;;;33.33;18.97;;;2.60;99.90;;;;;;5114789;28;20037;-77
2021/01/17 08:17:19;;;;;;;43.10;22.57;;;2.60;99.90;;;;;;5111259;28;20032;-77
2021/01/17 08:19:44;;;;;;;35.50;21.53;;;2.60;99.90;;;;;;5114377;28;20194;-77
2021/01/17 08:22:30;;;;;;;31.70;19.77;;;2.60;99.90;;;;;;5114397;28;20136;-77
2021/01/17 08:25:00;;;;;;;38.73;21.33;;;2.60;99.90;;;;;;5078618;28;20038;-77
2021/01/17 08:27:31;;;;;;;37.83;20.83;;;2.70;99.90;;;;;;5096254;28;20023;-77
2021/01/17 08:30:03;;;;;;;42.13;22.27;;;2.60;99.90;;;;;;5114625;28;20077;-77
2021/01/17 08:32:41;;;;;;;38.20;21.95;;;2.70;99.90;;;;;;5114769;28;20485;-77
2021/01/17 08:35:23;;;;;;;37.53;22.53;;;2.70;99.90;;;;;;5095563;28;20054;-77
2021/01/17 08:38:15;;;;;;;38.75;21.65;;;2.70;99.90;;;;;;5094713;28;20397;-77
2021/01/17 08:40:45;;;;;;;45.22;22.92;;;2.70;99.90;;;;;;5095009;28;20024;-77
2021/01/17 08:43:13;;;;;;;44.37;24.13;;;2.70;99.90;;;;;;5095251;28;20032;-77
2021/01/17 08:45:41;;;;;;;48.97;25.97;;;2.70;99.90;;;;;;5095118;28;20448;-77
2021/01/17 08:48:16;;;;;;;63.53;27.80;;;2.70;99.90;;;;;;5109621;28;20032;-77
2021/01/17 08:50:42;;;;;;;60.20;28.90;;;2.80;99.90;;;;;;5104012;28;20497;-77
2021/01/17 08:53:37;;;;;;;58.63;29.83;;;2.80;99.90;;;;;;5089432;28;20027;-77
2021/01/17 08:56:09;;;;;;;49.73;25.13;;;2.80;99.90;;;;;;5079905;27;20099;-79
2021/01/17 08:58:35;;;;;;;44.30;25.25;;;2.80;99.90;;;;;;5111834;27;20035;-79
2021/01/17 09:01:10;;;;;;;47.30;26.17;;;2.80;99.90;;;;;;5090897;27;20039;-79
2021/01/17 09:03:38;;;;;;;51.57;26.83;;;2.80;99.90;;;;;;5087582;27;20023;-79
2021/01/17 09:06:25;;;;;;;53.07;26.40;;;2.90;99.90;;;;;;5088985;28;20032;-79
2021/01/17 09:08:53;;;;;;;49.97;24.90;;;2.90;99.90;;;;;;5069258;28;20032;-79
2021/01/17 09:11:28;;;;;;;50.20;27.77;;;2.90;99.90;;;;;;5104190;28;20085;-79
2021/01/17 09:14:17;;;;;;;49.50;28.97;;;3.00;99.90;;;;;;5083710;28;20099;-78
2021/01/17 09:16:55;;;;;;;49.83;26.23;;;2.90;99.90;;;;;;5083883;28;20308;-78
2021/01/17 09:19:24;;;;;;;63.43;29.37;;;2.90;99.90;;;;;;5104847;28;20405;-79
2021/01/17 09:21:52;;;;;;;44.90;24.10;;;2.80;99.90;;;;;;5105057;28;20251;-78
2021/01/17 09:24:21;;;;;;;47.23;26.07;;;2.80;99.90;;;;;;5086655;28;20027;-79
2021/01/17 09:26:55;;;;;;;49.97;25.63;;;2.90;99.90;;;;;;5108451;28;20152;-79
2021/01/17 09:29:32;;;;;;;44.33;26.27;;;2.90;99.90;;;;;;5085639;28;20521;-79
2021/01/17 09:32:05;;;;;;;46.97;26.50;;;2.90;99.90;;;;;;5088171;28;20020;-79
2021/01/17 09:34:51;;;;;;;42.10;27.17;;;3.00;99.90;;;;;;5101806;28;20027;-79
2021/01/17 09:37:18;;;;;;;43.37;25.07;;;3.00;99.90;;;;;;5108365;28;20028;-79
2021/01/17 09:39:51;;;;;;;47.80;26.10;;;3.00;99.90;;;;;;5104187;28;20031;-79
2021/01/17 09:42:18;;;;;;;49.17;27.07;;;3.00;99.90;;;;;;5088041;28;20415;-79
2021/01/17 09:44:55;;;;;;;49.23;27.30;;;3.00;99.90;;;;;;5088277;28;20024;-79
2021/01/17 09:47:22;;;;;;;47.63;25.87;;;3.00;99.90;;;;;;5089242;28;20122;-79
2021/01/17 09:49:49;;;;;;;47.07;27.33;;;3.00;99.90;;;;;;5105472;28;20478;-79
2021/01/17 09:52:17;;;;;;;44.80;26.80;;;3.00;99.90;;;;;;5109118;28;20114;-79
2021/01/17 09:54:43;;;;;;;44.57;26.83;;;3.00;99.90;;;;;;5088406;28;20108;-79
2021/01/17 09:57:13;;;;;;;45.33;26.20;;;3.00;99.90;;;;;;5109081;28;20031;-80
2021/01/17 09:59:39;;;;;;;42.10;25.77;;;3.10;99.90;;;;;;5089368;28;20057;-78
2021/01/17 10:02:06;;;;;;;42.93;26.47;;;3.20;99.90;;;;;;5107951;28;20081;-79
2021/01/17 10:04:44;;;;;;;45.53;26.17;;;3.30;99.90;;;;;;5089924;28;20126;-79
2021/01/17 10:07:18;;;;;;;49.83;27.00;;;3.30;99.90;;;;;;5094562;28;20409;-77
2021/01/17 10:09:45;;;;;;;54.73;31.67;;;3.40;99.90;;;;;;5112979;28;20026;-78
2021/01/17 10:12:11;;;;;;;59.57;32.80;;;3.40;99.90;;;;;;5089710;27;20381;-79
2021/01/17 10:14:37;;;;;;;53.03;31.17;;;3.50;99.90;;;;;;5099276;28;20027;-76
2021/01/17 10:17:05;;;;;;;44.23;26.17;;;3.50;99.90;;;;;;5117961;27;20019;-76
2021/01/17 10:19:35;;;;;;;39.50;23.03;;;3.50;99.90;;;;;;5114266;27;20023;-77
2021/01/17 10:22:02;;;;;;;37.97;22.23;;;3.50;99.90;;;;;;5103492;28;20047;-79
2021/01/17 10:24:30;;;;;;;31.03;19.73;;;3.60;99.90;;;;;;5095099;28;20035;-79
2021/01/17 10:26:58;;;;;;;39.63;20.93;;;3.60;99.90;;;;;;5095047;28;20103;-79
2021/01/17 10:29:27;;;;;;;38.73;22.60;;;3.60;98.60;;;;;;5099072;28;20028;-79
2021/01/17 10:31:57;;;;;;;33.33;21.77;;;3.60;98.70;;;;;;5097212;27;20349;-79
2021/01/17 10:34:24;;;;;;;34.23;21.40;;;3.60;98.60;;;;;;5110678;27;20016;-79
2021/01/17 10:36:55;;;;;;;33.27;20.53;;;3.70;98.30;;;;;;5108268;27;20023;-80
2021/01/17 10:39:22;;;;;;;33.20;19.20;;;3.70;97.80;;;;;;5104090;27;20376;-80
2021/01/17 10:41:48;;;;;;;30.80;19.37;;;3.70;98.20;;;;;;5109767;27;20050;-80
2021/01/17 10:44:24;;;;;;;32.30;20.23;;;3.80;98.20;;;;;;5093862;27;20030;-78
2021/01/17 10:47:07;;;;;;;36.20;21.90;;;3.80;98.40;;;;;;5096216;28;20057;-78
2021/01/17 10:49:38;;;;;;;32.70;20.73;;;3.90;98.50;;;;;;5111305;27;20038;-78
2021/01/17 10:52:11;;;;;;;32.33;19.70;;;3.80;98.00;;;;;;5099551;27;20477;-78
2021/01/17 10:54:41;;;;;;;30.30;19.63;;;3.90;97.80;;;;;;5108536;27;20028;-79
2021/01/17 10:57:09;;;;;;;32.43;19.87;;;3.90;97.10;;;;;;5106038;28;20644;-78
2021/01/17 10:59:35;;;;;;;33.77;20.43;;;3.80;97.40;;;;;;5103867;27;20122;-78
2021/01/17 11:02:01;;;;;;;41.43;22.87;;;3.90;98.00;;;;;;5102759;28;20027;-78
2021/01/17 11:04:40;;;;;;;38.97;21.50;;;3.90;98.00;;;;;;5119341;27;20496;-76
2021/01/17 11:07:07;;;;;;;31.50;20.57;;;3.90;97.80;;;;;;5127117;27;20036;-76
2021/01/17 11:09:33;;;;;;;39.50;23.60;;;3.80;98.10;;;;;;5122129;27;20035;-76
2021/01/17 11:11:59;;;;;;;41.73;24.20;;;3.90;98.80;;;;;;5096170;28;20419;-76
2021/01/17 11:14:32;;;;;;;41.30;25.80;;;3.90;98.50;;;;;;5113086;28;20339;-76
2021/01/17 11:17:01;;;;;;;39.93;25.57;;;3.90;98.70;;;;;;5112221;27;20485;-75
2021/01/17 11:19:38;;;;;;;40.72;25.08;;;3.90;99.20;;;;;;5111210;28;20061;-75
2021/01/17 11:22:08;;;;;;;35.30;23.50;;;3.90;98.90;;;;;;5109913;28;20019;-76
2021/01/17 11:24:41;;;;;;;37.43;23.13;;;3.90;98.70;;;;;;5112308;28;20023;-75
2021/01/17 11:27:16;;;;;;;38.97;21.97;;;4.00;98.80;;;;;;5092268;28;20024;-77
2021/01/17 11:29:43;;;;;;;32.33;20.93;;;4.00;98.10;;;;;;5112797;28;20020;-77
2021/01/17 11:32:10;;;;;;;35.00;22.10;;;4.00;97.80;;;;;;5110189;27;20023;-78
2021/01/17 11:34:39;;;;;;;34.17;20.40;;;4.10;97.50;;;;;;5098466;27;20393;-77
2021/01/17 11:37:06;;;;;;;36.43;20.37;;;4.20;97.30;;;;;;5123123;27;20485;-76
2021/01/17 11:39:33;;;;;;;24.63;15.17;;;4.30;97.00;;;;;;5118378;27;20033;-78
2021/01/17 11:41:59;;;;;;;26.73;16.90;;;4.70;99.60;;;;;;5114091;27;20549;-77
2021/01/17 11:44:26;;;;;;;21.57;13.33;;;4.90;98.50;;;;;;5106997;28;20023;-77
2021/01/17 11:46:53;;;;;;;31.02;17.90;;;5.20;99.10;;;;;;5111949;28;20427;-77
2021/01/17 11:49:24;;;;;;;33.03;18.90;;;5.20;97.10;;;;;;5113020;28;20106;-77
2021/01/17 11:51:50;;;;;;;30.02;18.73;;;5.30;96.20;;;;;;5125624;27;20069;-76
2021/01/17 11:54:26;;;;;;;30.25;18.65;;;5.30;95.70;;;;;;5117405;27;20469;-76
2021/01/17 11:57:07;;;;;;;28.85;18.05;;;5.30;95.50;;;;;;5113697;28;20024;-76
2021/01/17 11:59:34;;;;;;;29.52;18.85;;;5.40;95.50;;;;;;5113648;28;20043;-75
2021/01/17 12:02:20;;;;;;;28.92;18.13;;;5.40;95.10;;;;;;5095825;28;20069;-76
2021/01/17 12:04:55;;;;;;;31.58;18.90;;;5.50;95.00;;;;;;5095109;28;20023;-76
2021/01/17 12:07:21;;;;;;;27.67;18.52;;;5.40;93.50;;;;;;5095841;28;20043;-76
2021/01/17 12:09:47;;;;;;;29.40;18.52;;;5.30;93.80;;;;;;5095559;28;20076;-76
2021/01/17 12:12:17;;;;;;;33.40;20.77;;;5.30;94.00;;;;;;5094271;28;20080;-76
2021/01/17 12:14:44;;;;;;;34.75;19.85;;;5.20;94.30;;;;;;5094540;28;20099;-76
2021/01/17 12:17:10;;;;;;;35.15;21.17;;;5.10;93.60;;;;;;5113343;28;20451;-76
2021/01/17 12:19:36;;;;;;;44.33;22.73;;;5.10;94.00;;;;;;5094921;28;20012;-76
2021/01/17 12:22:05;;;;;;;36.45;21.55;;;5.10;93.80;;;;;;5113154;28;20035;-76
2021/01/17 12:24:31;;;;;;;36.08;20.52;;;5.10;93.80;;;;;;5094387;28;20049;-76
2021/01/17 12:26:57;;;;;;;36.03;21.30;;;5.10;94.30;;;;;;5113000;28;20110;-76
2021/01/17 12:29:23;;;;;;;30.17;19.60;;;5.00;93.90;;;;;;5112925;28;20094;-76
2021/01/17 12:31:51;;;;;;;34.75;20.23;;;5.00;93.60;;;;;;5094679;28;20530;-75
2021/01/17 12:34:17;;;;;;;33.20;20.48;;;5.10;93.80;;;;;;5094510;27;20023;-76
2021/01/17 12:36:44;;;;;;;31.67;20.67;;;5.00;92.90;;;;;;5115334;27;20048;-75
2021/01/17 12:39:11;;;;;;;32.55;21.63;;;5.00;93.30;;;;;;5095451;28;20020;-76
2021/01/17 12:41:43;;;;;;;34.58;20.90;;;5.00;93.50;;;;;;5112091;28;20042;-75
2021/01/17 12:44:10;;;;;;;;;;;5.00;93.70;;;;;;5094430;28;20157;-75
2021/01/17 12:46:35;;;;;;;34.92;21.75;;;5.00;93.50;;;;;;5093364;28;19904;-76
2021/01/17 12:49:01;;;;;;;48.88;27.02;;;5.00;93.30;;;;;;5111620;28;20027;-75
2021/01/17 12:51:27;;;;;;;45.08;25.00;;;5.00;93.20;;;;;;5112165;28;20027;-75
2021/01/17 12:53:52;;;;;;;39.90;22.88;;;5.00;93.40;;;;;;5111659;28;20384;-75